createdAt,value
2017-08-02T00:01:51.455Z,16.50
2017-08-02T00:04:18.981Z,16.50
2017-08-02T00:06:46.602Z,16.50
2017-08-02T00:09:14.093Z,16.40
2017-08-02T00:11:41.608Z,16.40
2017-08-02T00:14:09.349Z,16.20
2017-08-02T00:16:36.936Z,16.20
2017-08-02T00:19:05.446Z,16.10
2017-08-02T00:21:32.989Z,16.10
2017-08-02T00:24:00.480Z,16.20
2017-08-02T00:26:27.999Z,16.30
2017-08-02T00:28:55.541Z,16.20
2017-08-02T00:31:23.087Z,16.20
2017-08-02T00:33:50.583Z,16.10
2017-08-02T00:36:18.864Z,16.10
2017-08-02T00:38:46.359Z,16.00
2017-08-02T00:41:13.844Z,16.00
2017-08-02T00:43:41.402Z,16.00
2017-08-02T00:46:08.924Z,16.00
2017-08-02T00:48:36.497Z,15.90
2017-08-02T00:51:04.036Z,15.90
2017-08-02T00:53:31.614Z,15.80
2017-08-02T00:55:59.142Z,15.80
2017-08-02T00:58:26.644Z,15.90
2017-08-02T01:00:54.981Z,16.10
2017-08-02T01:03:22.512Z,16.10
2017-08-02T01:05:50.046Z,16.20
2017-08-02T01:08:17.567Z,16.30
2017-08-02T01:10:45.149Z,16.20
2017-08-02T01:13:13.458Z,16.30
2017-08-02T01:15:40.998Z,16.30
2017-08-02T01:18:08.492Z,16.30
2017-08-02T01:20:36.009Z,16.30
2017-08-02T01:23:03.639Z,16.40
2017-08-02T01:25:31.151Z,16.30
2017-08-02T01:27:58.650Z,16.40
2017-08-02T01:30:26.253Z,16.30
2017-08-02T01:32:53.806Z,16.30
2017-08-02T01:35:21.365Z,16.30
2017-08-02T01:37:49.016Z,16.30
2017-08-02T01:40:16.583Z,16.30
2017-08-02T01:42:44.129Z,16.20
2017-08-02T01:45:12.541Z,16.10
2017-08-02T01:47:40.038Z,16.00
2017-08-02T01:50:07.532Z,16.00
2017-08-02T01:52:35.042Z,16.00
2017-08-02T01:55:03.334Z,16.20
2017-08-02T01:57:30.883Z,16.20
2017-08-02T01:59:58.393Z,16.20
2017-08-02T02:02:26.686Z,16.40
2017-08-02T02:04:54.254Z,16.40
2017-08-02T02:07:21.802Z,16.50
2017-08-02T02:09:49.345Z,16.40
2017-08-02T02:12:16.885Z,16.40
2017-08-02T02:14:44.430Z,16.30
2017-08-02T02:17:11.946Z,16.20
2017-08-02T02:19:40.210Z,16.30
2017-08-02T02:22:08.554Z,16.30
2017-08-02T02:24:36.840Z,16.30
2017-08-02T02:27:04.660Z,16.30
2017-08-02T02:29:32.248Z,16.40
2017-08-02T02:31:59.753Z,16.40
2017-08-02T02:34:27.270Z,16.30
2017-08-02T02:36:54.789Z,16.30
2017-08-02T02:39:22.319Z,16.30
2017-08-02T02:41:49.874Z,16.30
2017-08-02T02:44:17.435Z,16.30
2017-08-02T02:46:44.926Z,16.40
2017-08-02T02:49:13.234Z,16.40
2017-08-02T02:51:40.785Z,16.40
2017-08-02T02:54:08.364Z,16.40
2017-08-02T02:56:36.647Z,16.40
2017-08-02T02:59:04.170Z,16.30
2017-08-02T03:01:31.862Z,16.30
2017-08-02T03:03:59.369Z,16.30
2017-08-02T03:06:26.869Z,16.30
2017-08-02T03:08:54.452Z,16.30
2017-08-02T03:11:21.953Z,16.20
2017-08-02T03:13:49.445Z,16.20
2017-08-02T03:16:16.984Z,16.20
2017-08-02T03:18:44.469Z,16.20
2017-08-02T03:21:12.068Z,16.20
2017-08-02T03:23:39.590Z,16.20
2017-08-02T03:26:07.135Z,16.20
2017-08-02T03:28:34.651Z,16.20
2017-08-02T03:31:02.253Z,16.20
2017-08-02T03:33:29.749Z,16.30
2017-08-02T03:35:57.342Z,16.30
2017-08-02T03:38:24.844Z,16.30
2017-08-02T03:40:52.424Z,16.40
2017-08-02T03:43:19.938Z,16.30
2017-08-02T03:45:48.188Z,16.30
2017-08-02T03:48:15.713Z,16.30
2017-08-02T03:50:43.208Z,16.30
2017-08-02T03:53:10.873Z,16.30
2017-08-02T03:55:38.605Z,16.40
2017-08-02T03:58:06.126Z,16.40
2017-08-02T04:00:34.413Z,16.40
2017-08-02T04:03:01.922Z,16.40
2017-08-02T04:05:29.522Z,16.40
2017-08-02T04:07:57.044Z,16.50
2017-08-02T04:10:24.541Z,16.50
2017-08-02T04:12:52.057Z,16.50
2017-08-02T04:15:19.612Z,16.50
2017-08-02T04:17:47.161Z,16.50
2017-08-02T04:20:14.674Z,16.50
2017-08-02T04:22:42.254Z,16.60
2017-08-02T04:25:09.769Z,16.60
2017-08-02T04:27:37.303Z,16.60
2017-08-02T04:30:05.601Z,16.70
2017-08-02T04:32:33.181Z,16.70
2017-08-02T04:35:00.787Z,16.70
2017-08-02T04:37:28.325Z,16.80
2017-08-02T04:39:55.841Z,16.80
2017-08-02T04:42:24.132Z,16.90
2017-08-02T04:44:51.644Z,16.80
2017-08-02T04:47:19.909Z,17.00
2017-08-02T04:49:48.301Z,17.00
2017-08-02T04:52:15.801Z,16.90
2017-08-02T04:54:43.490Z,17.00
2017-08-02T04:57:11.028Z,17.00
2017-08-02T04:59:38.593Z,17.00
2017-08-02T05:02:06.153Z,17.10
2017-08-02T05:04:33.937Z,17.10
2017-08-02T05:07:01.478Z,17.20
2017-08-02T05:09:29.001Z,17.20
2017-08-02T05:11:56.504Z,17.40
2017-08-02T05:14:23.996Z,17.50
2017-08-02T05:16:51.529Z,17.60
2017-08-02T05:19:19.020Z,17.60
2017-08-02T05:21:46.506Z,17.60
2017-08-02T05:24:14.014Z,17.70
2017-08-02T05:26:41.569Z,17.80
2017-08-02T05:29:09.861Z,17.90
2017-08-02T05:31:37.378Z,17.90
2017-08-02T05:34:05.667Z,17.90
2017-08-02T05:36:33.174Z,17.90
2017-08-02T05:39:01.446Z,17.70
2017-08-02T05:41:29.728Z,17.80
2017-08-02T05:43:57.277Z,17.80
2017-08-02T05:46:24.793Z,17.90
2017-08-02T05:48:53.184Z,18.60
2017-08-02T05:51:20.725Z,18.60
2017-08-02T05:53:48.236Z,19.10
2017-08-02T05:56:16.528Z,19.50
2017-08-02T05:58:44.017Z,19.50
2017-08-02T06:01:11.530Z,19.60
2017-08-02T06:03:39.145Z,19.30
2017-08-02T06:06:06.742Z,19.10
2017-08-02T06:08:34.252Z,19.10
2017-08-02T06:11:01.792Z,19.20
2017-08-02T06:13:29.340Z,19.30
2017-08-02T06:15:56.881Z,19.40
2017-08-02T06:18:24.372Z,19.60
2017-08-02T06:20:51.884Z,19.80
2017-08-02T06:23:19.373Z,19.90
2017-08-02T06:25:46.905Z,20.00
2017-08-02T06:28:14.399Z,20.20
2017-08-02T06:30:42.653Z,20.40
2017-08-02T06:33:10.933Z,20.40
2017-08-02T06:35:38.511Z,20.40
2017-08-02T06:38:06.099Z,20.50
2017-08-02T06:40:34.874Z,21.00
2017-08-02T06:43:03.173Z,20.70
2017-08-02T06:45:30.717Z,20.70
2017-08-02T06:47:58.221Z,20.40
2017-08-02T06:50:25.737Z,20.50
2017-08-02T06:52:53.344Z,20.50
2017-08-02T06:55:20.848Z,20.70
2017-08-02T06:57:49.150Z,21.20
2017-08-02T07:00:16.692Z,21.10
2017-08-02T07:02:44.176Z,21.40
2017-08-02T07:05:11.724Z,21.60
2017-08-02T07:07:39.246Z,21.50
2017-08-02T07:10:06.836Z,21.70
2017-08-02T07:12:35.259Z,21.60
2017-08-02T07:15:02.786Z,21.50
2017-08-02T07:17:30.329Z,21.60
2017-08-02T07:19:57.853Z,21.70
2017-08-02T07:22:26.115Z,21.90
2017-08-02T07:24:53.683Z,21.90
2017-08-02T07:27:21.322Z,22.00
2017-08-02T07:29:48.828Z,22.00
2017-08-02T07:32:17.089Z,21.80
2017-08-02T07:34:44.609Z,21.70
2017-08-02T07:37:12.115Z,21.80
2017-08-02T07:39:40.141Z,22.00
2017-08-02T07:42:07.807Z,22.00
2017-08-02T07:44:35.463Z,22.00
2017-08-02T07:47:03.004Z,21.70
2017-08-02T07:49:30.557Z,22.20
2017-08-02T07:51:58.261Z,22.50
2017-08-02T07:54:26.569Z,23.00
2017-08-02T07:56:54.084Z,23.00
2017-08-02T07:59:22.357Z,23.30
2017-08-02T08:01:49.860Z,23.30
2017-08-02T08:04:17.350Z,23.60
2017-08-02T08:06:44.857Z,23.90
2017-08-02T08:09:13.149Z,24.10
2017-08-02T08:11:40.717Z,24.10
2017-08-02T08:14:08.488Z,24.40
2017-08-02T08:16:36.342Z,25.60
2017-08-02T08:19:03.860Z,26.00
2017-08-02T08:21:31.477Z,25.90
2017-08-02T08:23:59.029Z,25.00
2017-08-02T08:26:26.529Z,24.50
2017-08-02T08:28:54.846Z,24.30
2017-08-02T08:31:22.353Z,24.30
2017-08-02T08:33:50.625Z,23.90
2017-08-02T08:36:18.287Z,23.90
2017-08-02T08:38:45.825Z,23.70
2017-08-02T08:41:13.376Z,23.30
2017-08-02T08:43:40.896Z,23.10
2017-08-02T08:46:08.495Z,22.90
2017-08-02T08:48:36.127Z,22.90
2017-08-02T08:51:03.638Z,23.10
2017-08-02T08:53:31.198Z,22.90
2017-08-02T08:55:58.685Z,22.90
2017-08-02T08:58:26.265Z,23.50
2017-08-02T09:00:54.605Z,23.20
2017-08-02T09:03:22.185Z,23.20
2017-08-02T09:05:49.732Z,23.40
2017-08-02T09:08:17.277Z,23.30
2017-08-02T09:10:44.821Z,23.50
2017-08-02T09:13:12.325Z,23.70
2017-08-02T09:15:39.894Z,24.00
2017-08-02T09:18:07.498Z,24.70
2017-08-02T09:20:35.120Z,25.90
2017-08-02T09:23:02.645Z,26.60
2017-08-02T09:25:30.237Z,26.80
2017-08-02T09:27:57.760Z,28.00
2017-08-02T09:30:25.447Z,28.00
2017-08-02T09:32:53.765Z,26.90
2017-08-02T09:35:21.390Z,26.90
2017-08-02T09:37:48.886Z,27.30
2017-08-02T09:40:16.388Z,27.70
2017-08-02T09:42:43.885Z,28.90
2017-08-02T09:45:12.249Z,29.20
2017-08-02T09:47:40.614Z,29.00
2017-08-02T09:50:09.329Z,28.50
2017-08-02T09:52:49.662Z,28.40
2017-08-02T09:55:17.205Z,28.50
2017-08-02T09:57:44.745Z,28.70
2017-08-02T10:00:12.377Z,28.30
2017-08-02T10:02:40.109Z,28.40
2017-08-02T10:05:08.229Z,27.80
2017-08-02T10:07:37.148Z,27.30
2017-08-02T10:10:06.071Z,27.20
2017-08-02T10:12:33.701Z,27.40
2017-08-02T10:15:01.269Z,27.00
2017-08-02T10:17:28.884Z,27.50
2017-08-02T10:19:56.415Z,28.50
2017-08-02T10:22:23.983Z,28.00
2017-08-02T10:24:51.521Z,27.80
2017-08-02T10:27:19.013Z,27.60
2017-08-02T10:29:46.517Z,27.90
2017-08-02T10:32:14.000Z,28.80
2017-08-02T10:34:41.521Z,28.90
2017-08-02T10:37:09.260Z,28.50
2017-08-02T10:39:37.430Z,28.10
2017-08-02T10:42:04.958Z,28.30
2017-08-02T10:44:32.445Z,28.20
2017-08-02T10:47:00.024Z,28.30
2017-08-02T10:49:27.591Z,27.80
2017-08-02T10:51:55.147Z,27.80
2017-08-02T10:54:22.653Z,28.20
2017-08-02T10:56:50.210Z,28.40
2017-08-02T10:59:17.698Z,29.00
2017-08-02T11:01:45.215Z,29.40
2017-08-02T11:04:12.700Z,29.20
2017-08-02T11:06:41.004Z,28.60
2017-08-02T11:09:08.593Z,28.60
2017-08-02T11:11:36.277Z,28.80
2017-08-02T11:14:03.848Z,28.90
2017-08-02T11:16:31.381Z,28.40
2017-08-02T11:18:58.864Z,28.40
2017-08-02T11:21:26.489Z,28.30
2017-08-02T11:23:54.134Z,28.10
2017-08-02T11:26:21.644Z,27.40
2017-08-02T11:28:49.400Z,27.90
2017-08-02T11:31:16.893Z,27.70
2017-08-02T11:33:44.405Z,27.20
2017-08-02T11:36:11.894Z,26.90
2017-08-02T11:38:49.349Z,26.60
2017-08-02T11:41:16.853Z,26.30
2017-08-02T11:43:44.417Z,26.10
2017-08-02T11:46:11.905Z,26.30
2017-08-02T11:48:40.299Z,26.70
2017-08-02T11:51:08.528Z,26.70
2017-08-02T11:53:36.863Z,26.40
2017-08-02T11:56:04.583Z,26.40
2017-08-02T11:58:32.208Z,26.40
2017-08-02T12:00:59.757Z,26.60
2017-08-02T12:03:27.441Z,26.90
2017-08-02T12:05:55.091Z,27.00
2017-08-02T12:08:22.601Z,27.60
2017-08-02T12:10:50.113Z,27.40
2017-08-02T12:13:18.401Z,27.10
2017-08-02T12:15:45.944Z,27.10
2017-08-02T12:18:13.489Z,27.10
2017-08-02T12:20:41.188Z,27.20
2017-08-02T12:23:09.049Z,27.10
2017-08-02T12:25:38.055Z,26.90
2017-08-02T12:28:06.900Z,26.80
2017-08-02T12:30:35.481Z,27.30
2017-08-02T12:33:03.061Z,27.30
2017-08-02T12:35:30.598Z,27.50
2017-08-02T12:37:58.169Z,27.40
2017-08-02T12:40:25.712Z,27.40
2017-08-02T12:42:53.246Z,27.30
2017-08-02T12:45:20.769Z,27.10
2017-08-02T12:47:48.315Z,27.00
2017-08-02T12:50:15.812Z,27.20
2017-08-02T12:52:43.322Z,27.40
2017-08-02T12:55:11.384Z,27.20
2017-08-02T12:57:39.030Z,27.30
2017-08-02T13:00:07.090Z,27.10
2017-08-02T13:02:34.669Z,26.80
2017-08-02T13:05:02.154Z,26.70
2017-08-02T13:07:29.661Z,26.80
2017-08-02T13:09:57.960Z,26.50
2017-08-02T13:12:25.492Z,26.50
2017-08-02T13:14:53.046Z,26.50
2017-08-02T13:17:20.584Z,26.40
2017-08-02T13:19:48.129Z,26.40
2017-08-02T13:22:15.693Z,26.20
2017-08-02T13:24:43.424Z,26.00
2017-08-02T13:27:20.833Z,25.90
2017-08-02T13:29:48.440Z,25.90
2017-08-02T13:32:16.094Z,25.90
2017-08-02T13:34:43.628Z,25.90
2017-08-02T13:37:11.172Z,26.10
2017-08-02T13:39:38.712Z,26.00
2017-08-02T13:42:06.298Z,25.80
2017-08-02T13:44:34.301Z,26.00
2017-08-02T13:47:01.816Z,26.00
2017-08-02T13:49:29.321Z,26.00
2017-08-02T13:51:56.813Z,26.10
2017-08-02T13:54:24.415Z,26.20
2017-08-02T13:56:51.964Z,26.30
2017-08-02T13:59:19.449Z,26.00
2017-08-02T14:01:47.750Z,25.80
2017-08-02T14:04:15.293Z,25.80
2017-08-02T14:06:42.824Z,26.00
2017-08-02T14:09:10.394Z,25.70
2017-08-02T14:11:38.048Z,25.40
2017-08-02T14:14:05.575Z,25.20
2017-08-02T14:16:33.107Z,25.10
2017-08-02T14:19:00.662Z,25.00
2017-08-02T14:21:28.161Z,24.80
2017-08-02T14:23:55.812Z,24.80
2017-08-02T14:26:24.291Z,24.70
2017-08-02T14:28:51.821Z,24.70
2017-08-02T14:31:19.336Z,24.50
2017-08-02T14:33:46.868Z,24.50
2017-08-02T14:36:14.399Z,24.30
2017-08-02T14:38:42.148Z,24.10
2017-08-02T14:41:09.815Z,24.00
2017-08-02T14:43:37.332Z,23.90
2017-08-02T14:46:05.022Z,23.50
2017-08-02T14:48:32.597Z,23.50
2017-08-02T14:51:00.877Z,23.30
2017-08-02T14:53:28.379Z,23.30
2017-08-02T14:55:56.026Z,23.40
2017-08-02T14:58:24.500Z,23.30
2017-08-02T15:00:52.762Z,23.20
2017-08-02T15:03:21.034Z,23.20
2017-08-02T15:05:49.332Z,23.20
2017-08-02T15:08:16.858Z,23.20
2017-08-02T15:10:44.345Z,23.20
2017-08-02T15:13:11.959Z,23.10
2017-08-02T15:15:40.309Z,23.20
2017-08-02T15:18:07.849Z,23.10
2017-08-02T15:20:35.621Z,23.10
2017-08-02T15:23:03.353Z,22.90
2017-08-02T15:25:30.893Z,22.90
2017-08-02T15:27:58.373Z,22.90
2017-08-02T15:30:25.869Z,22.80
2017-08-02T15:32:53.437Z,22.70
2017-08-02T15:35:20.978Z,22.60
2017-08-02T15:37:48.612Z,22.60
2017-08-02T15:40:16.153Z,22.70
2017-08-02T15:42:43.727Z,22.80
2017-08-02T15:45:11.241Z,22.90
2017-08-02T15:47:38.730Z,22.90
2017-08-02T15:50:16.292Z,22.90
2017-08-02T15:52:43.778Z,22.80
2017-08-02T15:55:12.073Z,22.60
2017-08-02T15:57:39.649Z,22.60
2017-08-02T16:00:07.200Z,22.60
2017-08-02T16:02:35.121Z,22.50
2017-08-02T16:05:02.641Z,22.50
2017-08-02T16:07:30.925Z,22.80
2017-08-02T16:09:58.421Z,22.80
2017-08-02T16:12:25.937Z,22.90
2017-08-02T16:14:53.449Z,22.90
2017-08-02T16:17:21.097Z,22.90
2017-08-02T16:19:48.641Z,22.80
2017-08-02T16:22:16.206Z,22.70
2017-08-02T16:24:43.725Z,22.60
2017-08-02T16:27:11.254Z,22.60
2017-08-02T16:29:39.757Z,22.60
2017-08-02T16:32:07.928Z,22.50
2017-08-02T16:34:36.030Z,22.50
2017-08-02T16:37:03.599Z,22.50
2017-08-02T16:39:31.139Z,22.50
2017-08-02T16:41:59.221Z,22.50
2017-08-02T16:44:36.916Z,22.60
2017-08-02T16:47:06.260Z,22.60
2017-08-02T16:49:35.519Z,22.70
2017-08-02T16:52:03.093Z,22.70
2017-08-02T16:54:30.635Z,22.60
2017-08-02T16:56:58.525Z,22.60
2017-08-02T16:59:26.781Z,22.50
2017-08-02T17:01:54.320Z,22.50
2017-08-02T17:04:22.013Z,22.40
2017-08-02T17:06:50.323Z,22.40
2017-08-02T17:09:17.944Z,22.40
2017-08-02T17:11:45.497Z,22.50
2017-08-02T17:14:13.038Z,22.40
2017-08-02T17:16:40.572Z,22.50
2017-08-02T17:19:08.311Z,22.50
2017-08-02T17:21:36.710Z,22.50
2017-08-02T17:24:04.242Z,22.60
2017-08-02T17:26:31.776Z,22.60
2017-08-02T17:28:59.260Z,22.60
2017-08-02T17:31:37.132Z,22.60
2017-08-02T17:34:05.228Z,22.50
2017-08-02T17:36:33.012Z,22.30
2017-08-02T17:39:00.493Z,22.30
2017-08-02T17:41:28.005Z,22.20
2017-08-02T17:43:55.516Z,22.10
2017-08-02T17:46:23.025Z,22.00
2017-08-02T17:48:50.530Z,22.00
2017-08-02T17:51:18.073Z,21.90
2017-08-02T17:53:45.615Z,21.90
2017-08-02T17:56:13.092Z,21.90
2017-08-02T17:58:40.630Z,21.80
2017-08-02T18:01:09.004Z,21.90
2017-08-02T18:03:36.537Z,21.90
2017-08-02T18:06:04.061Z,21.90
2017-08-02T18:08:31.597Z,21.80
2017-08-02T18:10:59.149Z,21.70
2017-08-02T18:13:26.649Z,21.60
2017-08-02T18:15:54.923Z,21.30
2017-08-02T18:18:23.209Z,21.40
2017-08-02T18:20:50.713Z,21.30
2017-08-02T18:23:18.206Z,21.30
2017-08-02T18:25:45.745Z,21.20
2017-08-02T18:28:13.281Z,21.20
2017-08-02T18:30:40.796Z,21.10
2017-08-02T18:33:09.084Z,20.90
2017-08-02T18:35:36.648Z,20.90
2017-08-02T18:38:04.311Z,20.70
2017-08-02T18:40:31.950Z,20.70
2017-08-02T18:42:59.429Z,20.60
2017-08-02T18:45:27.097Z,20.60
2017-08-02T18:47:54.693Z,20.50
2017-08-02T18:50:22.385Z,20.50
2017-08-02T18:52:49.910Z,20.30
2017-08-02T18:55:17.421Z,20.20
2017-08-02T18:57:45.030Z,20.10
2017-08-02T19:00:13.451Z,20.00
2017-08-02T19:02:40.965Z,19.90
2017-08-02T19:05:08.469Z,19.90
2017-08-02T19:07:35.969Z,19.90
2017-08-02T19:10:03.497Z,19.80
2017-08-02T19:12:31.046Z,19.80
2017-08-02T19:14:58.529Z,19.70
2017-08-02T19:17:26.132Z,19.70
2017-08-02T19:19:53.878Z,19.80
2017-08-02T19:22:21.412Z,19.70
2017-08-02T19:24:48.973Z,19.60
2017-08-02T19:27:16.464Z,19.60
2017-08-02T19:29:44.066Z,19.50
2017-08-02T19:32:11.675Z,19.40
2017-08-02T19:34:39.991Z,19.40
2017-08-02T19:37:07.604Z,19.40
2017-08-02T19:39:35.113Z,19.40
2017-08-02T19:42:02.604Z,19.30
2017-08-02T19:44:30.104Z,19.20
2017-08-02T19:46:58.401Z,19.00
2017-08-02T19:49:26.057Z,19.00
2017-08-02T19:51:53.587Z,19.00
2017-08-02T19:54:21.365Z,18.90
2017-08-02T19:56:48.885Z,18.80
2017-08-02T19:59:16.419Z,18.50
2017-08-02T20:01:43.973Z,18.60
2017-08-02T20:04:11.487Z,18.60
2017-08-02T20:06:39.060Z,18.50
2017-08-02T20:09:06.628Z,18.60
2017-08-02T20:11:34.146Z,18.50
2017-08-02T20:14:01.692Z,18.60
2017-08-02T20:16:29.265Z,18.60
2017-08-02T20:18:56.903Z,18.60
2017-08-02T20:21:25.383Z,18.70
2017-08-02T20:23:53.726Z,18.70
2017-08-02T20:26:21.690Z,18.70
2017-08-02T20:28:49.234Z,18.60
2017-08-02T20:31:16.753Z,18.70
2017-08-02T20:33:44.296Z,18.60
2017-08-02T20:36:11.948Z,18.60
2017-08-02T20:38:39.586Z,18.60
2017-08-02T20:41:07.081Z,18.70
2017-08-02T20:43:34.677Z,18.70
2017-08-02T20:46:02.170Z,18.60
2017-08-02T20:48:29.673Z,18.60
2017-08-02T20:50:57.389Z,18.60
2017-08-02T20:53:34.833Z,18.50
2017-08-02T20:56:02.322Z,18.50
2017-08-02T20:58:29.868Z,18.50
2017-08-02T21:00:57.374Z,18.50
2017-08-02T21:03:25.666Z,18.60
2017-08-02T21:05:53.355Z,18.60
2017-08-02T21:08:20.890Z,18.60
2017-08-02T21:10:48.413Z,18.60
2017-08-02T21:13:15.951Z,18.60
2017-08-02T21:15:43.523Z,18.70
2017-08-02T21:18:11.113Z,18.70
2017-08-02T21:20:38.641Z,18.70
2017-08-02T21:23:06.229Z,18.80
2017-08-02T21:25:33.735Z,18.80
2017-08-02T21:28:01.316Z,18.80
2017-08-02T21:30:28.844Z,18.80
2017-08-02T21:32:57.112Z,18.80
2017-08-02T21:35:24.649Z,18.80
2017-08-02T21:37:52.926Z,18.80
2017-08-02T21:40:20.486Z,18.80
2017-08-02T21:42:47.976Z,18.80
2017-08-02T21:45:15.469Z,18.80
2017-08-02T21:47:43.001Z,18.80
2017-08-02T21:50:10.506Z,18.80
2017-08-02T21:52:38.094Z,18.90
2017-08-02T21:55:05.585Z,18.90
2017-08-02T21:57:33.177Z,18.90
2017-08-02T22:00:00.687Z,18.90
2017-08-02T22:02:28.264Z,18.90
2017-08-02T22:04:55.850Z,18.80
2017-08-02T22:07:24.197Z,18.80
2017-08-02T22:09:51.768Z,18.80
2017-08-02T22:12:19.405Z,18.90
2017-08-02T22:14:46.946Z,18.90
2017-08-02T22:17:14.585Z,18.80
2017-08-02T22:19:42.072Z,18.80
2017-08-02T22:22:09.577Z,18.80
2017-08-02T22:24:37.077Z,18.80
2017-08-02T22:27:04.615Z,18.80
2017-08-02T22:29:32.197Z,18.80
2017-08-02T22:31:59.745Z,18.80
2017-08-02T22:34:27.289Z,18.70
2017-08-02T22:36:54.790Z,18.70
2017-08-02T22:39:22.304Z,18.60
2017-08-02T22:41:49.805Z,18.70
2017-08-02T22:44:18.104Z,18.80
2017-08-02T22:46:45.649Z,18.80
2017-08-02T22:49:13.169Z,18.80
2017-08-02T22:51:40.750Z,18.80
2017-08-02T22:54:08.270Z,18.70
2017-08-02T22:56:35.901Z,18.70
2017-08-02T22:59:03.409Z,18.80
2017-08-02T23:01:30.989Z,18.80
2017-08-02T23:03:58.501Z,18.90
2017-08-02T23:06:26.030Z,18.90
2017-08-02T23:08:53.547Z,18.90
2017-08-02T23:11:21.105Z,18.90
2017-08-02T23:13:48.657Z,18.80
2017-08-02T23:16:16.205Z,18.80
2017-08-02T23:18:43.737Z,18.90
2017-08-02T23:21:11.285Z,18.80
2017-08-02T23:23:38.785Z,18.70
2017-08-02T23:26:06.373Z,18.80
2017-08-02T23:28:33.865Z,18.80
2017-08-02T23:31:01.372Z,18.80
2017-08-02T23:33:28.926Z,18.60
2017-08-02T23:35:56.675Z,18.50
2017-08-02T23:38:24.193Z,18.50
2017-08-02T23:40:51.720Z,18.50
2017-08-02T23:43:19.287Z,18.40
2017-08-02T23:45:46.859Z,18.40
2017-08-02T23:48:14.369Z,18.50
2017-08-02T23:50:41.852Z,18.50
2017-08-02T23:53:09.357Z,18.50
2017-08-02T23:55:36.905Z,18.50
2017-08-02T23:58:04.445Z,18.40
